Time;durP1;ratioP1;P1;durP2;ratioP2;P2;SDS_P1;SDS_P2;PMS_P1;PMS_P2;Temp;Humidity;BMP_temperature;BMP_pressure;BME280_temperature;BME280_humidity;BME280_pressure;Samples;Min_cycle;Max_cycle;Signal;HPM_P1;HPM_P2
2024/02/11 00:00:51;;;;;;;2.58;1.02;;;23.00;49.90;;;;;;5071531;28;20028;-41
2024/02/11 00:03:25;;;;;;;1.77;0.90;;;23.00;49.80;;;;;;5070407;28;20067;-43
2024/02/11 00:05:52;;;;;;;1.52;1.10;;;23.10;49.70;;;;;;5055387;28;20095;-40
2024/02/11 00:08:19;;;;;;;1.80;0.93;;;23.00;49.60;;;;;;5048337;28;20069;-38
2024/02/11 00:10:45;;;;;;;1.70;1.17;;;23.00;49.60;;;;;;5052957;28;20025;-39
2024/02/11 00:13:12;;;;;;;2.13;1.27;;;23.00;49.50;;;;;;5051994;28;20102;-38
2024/02/11 00:15:39;;;;;;;2.55;1.20;;;23.00;49.50;;;;;;5049689;28;20501;-40
2024/02/11 00:18:06;;;;;;;2.13;1.20;;;23.00;49.50;;;;;;5044621;28;20079;-39
2024/02/11 00:20:33;;;;;;;1.95;1.23;;;23.00;49.40;;;;;;5052378;28;20090;-40
2024/02/11 00:23:00;;;;;;;1.98;1.25;;;23.00;49.40;;;;;;5052203;28;20544;-36
2024/02/11 00:25:26;;;;;;;2.40;1.35;;;23.00;50.00;;;;;;5052426;28;20087;-39
2024/02/11 00:27:54;;;;;;;2.33;1.05;;;23.00;49.40;;;;;;5045446;28;20048;-40
2024/02/11 00:30:23;;;;;;;2.30;1.00;;;23.00;49.70;;;;;;5053869;28;20028;-37
2024/02/11 00:32:49;;;;;;;2.88;1.13;;;23.00;49.80;;;;;;5034182;28;20033;-41
2024/02/11 00:35:17;;;;;;;1.95;1.00;;;23.00;49.70;;;;;;5050680;28;20033;-40
2024/02/11 00:37:44;;;;;;;2.63;0.95;;;23.00;49.70;;;;;;5051689;28;20053;-38
2024/02/11 00:40:11;;;;;;;1.53;0.87;;;23.00;49.70;;;;;;5050230;28;20112;-40
2024/02/11 00:42:37;;;;;;;1.55;1.13;;;23.00;49.70;;;;;;5046022;28;20040;-40
2024/02/11 00:45:04;;;;;;;1.75;0.80;;;23.00;49.70;;;;;;5053462;28;20026;-39
2024/02/11 00:47:30;;;;;;;1.65;1.00;;;23.00;49.60;;;;;;5058323;28;20052;-38
2024/02/11 00:49:56;;;;;;;1.50;1.02;;;23.00;49.70;;;;;;5052618;28;20040;-40
2024/02/11 00:52:22;;;;;;;2.20;1.00;;;23.00;49.90;;;;;;5053387;28;20644;-40
2024/02/11 00:54:49;;;;;;;1.95;1.10;;;22.90;49.70;;;;;;5058762;28;20029;-40
2024/02/11 00:57:17;;;;;;;1.10;0.90;;;22.90;49.70;;;;;;5053105;28;20143;-40
2024/02/11 00:59:43;;;;;;;3.83;0.88;;;22.90;50.10;;;;;;5057236;28;20753;-38
2024/02/11 01:02:11;;;;;;;3.78;1.30;;;22.90;50.00;;;;;;5054420;28;20037;-41
2024/02/11 01:04:38;;;;;;;3.53;1.00;;;22.90;49.90;;;;;;5061167;28;20424;-39
2024/02/11 01:07:05;;;;;;;1.60;1.00;;;22.90;49.90;;;;;;5057261;28;20041;-38
2024/02/11 01:09:33;;;;;;;2.50;0.90;;;22.90;50.00;;;;;;5055013;28;20550;-35
2024/02/11 01:11:59;;;;;;;1.48;0.80;;;22.90;50.00;;;;;;5062074;28;20036;-40
2024/02/11 01:14:25;;;;;;;1.13;0.82;;;22.90;50.00;;;;;;5059712;28;20068;-38
2024/02/11 01:16:51;;;;;;;2.88;1.05;;;22.90;50.00;;;;;;5059798;28;20029;-38
2024/02/11 01:19:18;;;;;;;2.70;1.02;;;22.90;50.00;;;;;;5054840;28;20059;-41
2024/02/11 01:21:44;;;;;;;2.90;1.17;;;22.90;50.10;;;;;;5059161;28;20672;-39
2024/02/11 01:24:14;;;;;;;2.63;0.70;;;22.90;50.20;;;;;;5052386;28;20037;-40
2024/02/11 01:26:40;;;;;;;2.72;0.93;;;22.90;50.10;;;;;;5058353;28;20061;-40
2024/02/11 01:29:06;;;;;;;1.83;1.10;;;22.90;50.00;;;;;;5052609;28;20041;-39
2024/02/11 01:31:35;;;;;;;2.55;1.20;;;22.90;50.00;;;;;;5054741;28;20030;-40
2024/02/11 01:34:02;;;;;;;1.67;1.00;;;22.90;50.10;;;;;;5053186;28;20044;-40
2024/02/11 01:36:28;;;;;;;1.63;1.00;;;22.80;50.40;;;;;;5051624;28;20022;-36
2024/02/11 01:39:15;;;;;;;1.90;0.90;;;22.80;50.20;;;;;;4980871;28;20058;-39
2024/02/11 01:41:41;;;;;;;2.20;0.88;;;22.90;50.10;;;;;;4972660;28;20086;-39
2024/02/11 01:44:08;;;;;;;3.05;1.23;;;22.80;50.00;;;;;;4979599;28;20524;-40
2024/02/11 01:46:34;;;;;;;1.25;0.88;;;22.80;50.00;;;;;;4979549;28;20026;-39
2024/02/11 01:49:04;;;;;;;1.70;0.97;;;22.80;50.10;;;;;;4977231;28;20070;-40
2024/02/11 01:51:33;;;;;;;1.85;1.00;;;22.80;50.10;;;;;;4973678;28;20031;-39
2024/02/11 01:54:01;;;;;;;1.20;0.90;;;22.80;50.10;;;;;;4963581;28;20092;-38
2024/02/11 01:56:27;;;;;;;1.33;1.02;;;22.80;50.10;;;;;;4968178;28;20046;-38
2024/02/11 01:58:53;;;;;;;1.48;0.80;;;22.80;50.20;;;;;;4972884;28;20031;-39
2024/02/11 02:01:21;;;;;;;2.05;0.70;;;22.80;50.40;;;;;;4968981;28;20018;-39
2024/02/11 02:03:47;;;;;;;2.30;0.80;;;22.80;50.50;;;;;;4967557;28;20065;-44
2024/02/11 02:06:15;;;;;;;1.00;0.73;;;22.80;50.30;;;;;;4977581;28;20042;-39
2024/02/11 02:08:41;;;;;;;0.95;0.80;;;22.80;50.20;;;;;;4976233;28;20073;-37
2024/02/11 02:11:08;;;;;;;1.13;0.70;;;22.80;50.20;;;;;;4977868;28;20022;-38
2024/02/11 02:13:34;;;;;;;;;;;22.80;50.20;;;;;;4962648;28;20090;-38
2024/02/11 02:16:00;;;;;;;1.85;0.85;;;22.80;50.20;;;;;;4988393;28;19971;-38
2024/02/11 02:18:28;;;;;;;1.27;0.80;;;22.80;50.20;;;;;;5055422;28;20057;-37
2024/02/11 02:20:54;;;;;;;1.33;0.93;;;22.80;50.30;;;;;;5051617;28;20049;-38
2024/02/11 02:23:20;;;;;;;1.88;0.80;;;22.80;50.30;;;;;;5050741;28;20093;-38
2024/02/11 02:25:46;;;;;;;1.42;0.88;;;22.80;50.10;;;;;;5057385;28;20033;-40
2024/02/11 02:28:13;;;;;;;1.55;1.02;;;22.80;50.70;;;;;;5058426;28;20067;-40
2024/02/11 02:30:39;;;;;;;1.65;1.00;;;22.80;50.70;;;;;;5053629;28;20125;-39
2024/02/11 02:33:05;;;;;;;2.30;1.00;;;22.80;50.60;;;;;;5058238;28;20033;-40
2024/02/11 02:35:33;;;;;;;1.45;1.00;;;22.80;50.40;;;;;;5057411;28;20494;-39
2024/02/11 02:37:59;;;;;;;1.73;0.88;;;22.80;50.30;;;;;;5056210;28;20039;-39
2024/02/11 02:40:26;;;;;;;1.35;0.90;;;22.80;50.30;;;;;;5047703;28;20109;-40
2024/02/11 02:42:53;;;;;;;1.90;0.77;;;22.80;50.30;;;;;;5050076;28;20036;-38
2024/02/11 02:45:19;;;;;;;2.50;1.10;;;22.80;50.40;;;;;;5049794;28;20076;-38
2024/02/11 02:47:46;;;;;;;1.95;0.95;;;22.80;50.50;;;;;;5052945;28;20064;-39
2024/02/11 02:50:15;;;;;;;;;;;22.80;50.40;;;;;;5055727;28;20045;-37
2024/02/11 02:52:43;;;;;;;1.40;0.98;;;22.80;50.30;;;;;;5053703;28;19970;-38
2024/02/11 02:55:09;;;;;;;1.75;0.90;;;22.80;50.40;;;;;;5055515;28;20037;-37
2024/02/11 02:57:35;;;;;;;1.60;0.98;;;22.80;50.50;;;;;;5053520;28;20029;-38
2024/02/11 03:00:06;;;;;;;1.93;1.20;;;22.80;50.70;;;;;;5055667;28;20028;-38
2024/02/11 03:02:34;;;;;;;2.03;1.20;;;22.80;50.50;;;;;;5056594;28;20029;-36
2024/02/11 03:05:02;;;;;;;2.15;1.00;;;22.80;50.50;;;;;;5062596;28;20053;-37
2024/02/11 03:07:28;;;;;;;3.42;1.40;;;22.80;50.40;;;;;;5078962;28;20040;-38
2024/02/11 03:09:54;;;;;;;2.70;1.38;;;22.80;50.40;;;;;;5069445;28;20052;-40
2024/02/11 03:12:20;;;;;;;1.98;1.10;;;22.80;50.40;;;;;;5076222;28;20407;-41
2024/02/11 03:14:48;;;;;;;1.90;1.33;;;22.80;50.30;;;;;;5071140;28;20027;-38
2024/02/11 03:17:14;;;;;;;1.48;1.05;;;22.80;50.50;;;;;;5073238;28;20033;-37
2024/02/11 03:19:43;;;;;;;1.70;1.20;;;22.80;50.30;;;;;;5075798;28;20086;-36
2024/02/11 03:22:13;;;;;;;3.08;1.40;;;22.80;50.30;;;;;;5081152;28;20044;-39
2024/02/11 03:24:39;;;;;;;1.58;1.08;;;22.80;50.30;;;;;;5075843;28;20033;-37
2024/02/11 03:27:06;;;;;;;2.75;1.20;;;22.80;50.30;;;;;;5072866;28;20040;-38
2024/02/11 03:29:33;;;;;;;2.72;1.17;;;22.80;50.60;;;;;;5074544;28;20088;-37
2024/02/11 03:31:59;;;;;;;1.95;1.08;;;22.90;50.60;;;;;;5070812;28;20032;-39
2024/02/11 03:34:26;;;;;;;2.05;1.30;;;22.90;50.50;;;;;;5071072;28;20036;-35
2024/02/11 03:36:52;;;;;;;2.53;1.30;;;22.90;50.50;;;;;;5072806;28;20056;-39
2024/02/11 03:39:22;;;;;;;3.20;1.30;;;22.90;50.50;;;;;;5073332;28;20030;-39
2024/02/11 03:41:49;;;;;;;2.55;1.35;;;22.90;50.60;;;;;;5068398;28;20105;-40
2024/02/11 03:44:15;;;;;;;1.80;1.23;;;22.90;51.00;;;;;;5069722;28;20021;-38
2024/02/11 03:46:41;;;;;;;1.58;0.85;;;22.90;50.40;;;;;;5076972;28;20131;-44
2024/02/11 03:49:07;;;;;;;1.38;1.20;;;22.90;50.40;;;;;;5075400;28;20029;-38
2024/02/11 03:51:33;;;;;;;2.08;1.40;;;22.90;50.40;;;;;;5074263;28;20029;-36
2024/02/11 03:54:04;;;;;;;2.03;1.13;;;22.90;50.60;;;;;;5078126;28;20393;-35
2024/02/11 03:56:30;;;;;;;3.17;1.20;;;22.90;50.80;;;;;;5080031;28;20112;-36
2024/02/11 03:58:56;;;;;;;3.20;1.20;;;22.90;50.60;;;;;;5076764;28;20106;-38
2024/02/11 04:01:22;;;;;;;4.00;1.33;;;22.90;50.60;;;;;;5073295;28;20481;-38
2024/02/11 04:03:49;;;;;;;2.15;1.05;;;22.90;50.60;;;;;;5074675;28;20032;-39
2024/02/11 04:06:18;;;;;;;1.27;1.15;;;22.90;50.60;;;;;;5072251;28;20764;-38
2024/02/11 04:08:44;;;;;;;1.98;1.25;;;22.90;50.50;;;;;;5080296;28;20044;-39
2024/02/11 04:11:10;;;;;;;1.80;1.17;;;22.90;50.50;;;;;;5074081;28;20036;-38
2024/02/11 04:13:37;;;;;;;2.83;0.98;;;22.90;50.50;;;;;;5070438;28;20475;-37
2024/02/11 04:16:11;;;;;;;1.27;1.00;;;22.90;50.50;;;;;;5069128;28;20032;-39
2024/02/11 04:18:40;;;;;;;2.88;1.30;;;22.90;50.50;;;;;;5075464;28;20386;-37
2024/02/11 04:21:06;;;;;;;3.05;1.10;;;22.90;50.40;;;;;;5053070;28;20028;-37
2024/02/11 04:23:33;;;;;;;1.10;0.98;;;22.90;50.40;;;;;;5078702;28;20036;-36
2024/02/11 04:26:07;;;;;;;1.98;1.27;;;22.90;50.70;;;;;;5080634;28;20021;-41
2024/02/11 04:28:35;;;;;;;2.92;1.10;;;22.90;50.90;;;;;;5076529;28;20106;-39
2024/02/11 04:31:04;;;;;;;3.17;1.25;;;22.90;50.70;;;;;;5073598;28;20055;-39
2024/02/11 04:33:30;;;;;;;1.75;1.10;;;22.90;50.70;;;;;;5074555;28;20056;-37
2024/02/11 04:36:00;;;;;;;3.00;1.27;;;22.90;50.60;;;;;;5079043;28;20028;-39
2024/02/11 04:38:27;;;;;;;3.90;1.30;;;22.90;50.60;;;;;;5075951;28;20036;-37
2024/02/11 04:40:55;;;;;;;3.08;1.10;;;22.90;50.60;;;;;;5077886;28;20086;-39
2024/02/11 04:43:21;;;;;;;3.28;1.08;;;22.90;50.60;;;;;;5078574;28;20021;-33
2024/02/11 04:45:48;;;;;;;2.75;1.05;;;22.90;50.60;;;;;;5075352;28;20877;-38
2024/02/11 04:48:14;;;;;;;3.92;1.10;;;22.90;50.60;;;;;;5079350;28;20055;-38
2024/02/11 04:50:40;;;;;;;3.53;1.23;;;22.90;50.90;;;;;;5057343;28;20032;-38
2024/02/11 04:53:08;;;;;;;3.22;1.08;;;22.90;51.20;;;;;;5079486;28;20120;-36
2024/02/11 04:55:43;;;;;;;2.15;1.27;;;23.00;51.10;;;;;;5074272;28;20032;-37
2024/02/11 04:58:18;;;;;;;2.17;1.02;;;22.90;51.10;;;;;;5076739;28;20032;-34
2024/02/11 05:00:53;;;;;;;3.42;1.00;;;23.00;51.10;;;;;;5076973;28;20048;-38
2024/02/11 05:03:20;;;;;;;2.47;1.20;;;23.00;51.00;;;;;;5079728;28;20032;-39
2024/02/11 05:05:50;;;;;;;2.13;1.10;;;23.00;51.00;;;;;;5066490;28;20055;-39
2024/02/11 05:08:16;;;;;;;1.38;1.00;;;23.00;51.00;;;;;;5062470;28;20056;-40
2024/02/11 05:10:44;;;;;;;1.20;0.88;;;23.00;51.00;;;;;;5061924;28;20044;-39
2024/02/11 05:13:11;;;;;;;1.45;0.82;;;23.00;51.10;;;;;;5061651;28;20691;-39
2024/02/11 05:15:38;;;;;;;2.60;1.15;;;23.00;51.20;;;;;;5057569;28;20064;-38
2024/02/11 05:18:05;;;;;;;1.33;0.85;;;23.00;51.10;;;;;;5061020;28;20025;-39
2024/02/11 05:20:31;;;;;;;2.30;0.90;;;23.00;51.10;;;;;;5052941;28;20033;-40
2024/02/11 05:22:58;;;;;;;1.35;0.88;;;23.00;51.10;;;;;;5058104;28;20055;-38
2024/02/11 05:25:26;;;;;;;1.65;1.20;;;23.00;50.90;;;;;;5040495;28;20108;-39
2024/02/11 05:27:59;;;;;;;1.20;0.70;;;23.00;51.00;;;;;;5058057;28;20136;-38
2024/02/11 05:30:37;;;;;;;2.33;0.90;;;23.00;50.90;;;;;;5063072;28;20037;-40
2024/02/11 05:33:06;;;;;;;;;;;23.00;50.90;;;;;;5053317;28;20039;-40
2024/02/11 05:35:37;;;;;;;0.88;0.80;;;23.00;50.80;;;;;;5060501;28;19912;-38
2024/02/11 05:38:05;;;;;;;1.50;0.73;;;23.00;51.00;;;;;;5059196;28;20118;-38
2024/02/11 05:40:36;;;;;;;1.75;0.95;;;23.00;51.20;;;;;;5061399;28;20109;-40
2024/02/11 05:43:06;;;;;;;1.90;1.02;;;23.00;51.10;;;;;;5036947;28;20155;-38
2024/02/11 05:45:32;;;;;;;3.28;0.90;;;23.00;51.00;;;;;;5063443;28;20092;-40
2024/02/11 05:47:58;;;;;;;0.93;0.80;;;23.00;50.90;;;;;;5063104;28;20051;-39
2024/02/11 05:50:26;;;;;;;2.03;0.88;;;23.00;50.90;;;;;;5061486;28;20088;-41
2024/02/11 05:52:53;;;;;;;0.80;0.60;;;23.00;50.80;;;;;;5061691;28;20032;-40
2024/02/11 05:55:20;;;;;;;0.85;0.73;;;23.00;50.80;;;;;;5060183;28;20032;-39
2024/02/11 05:57:48;;;;;;;1.40;0.88;;;23.00;50.80;;;;;;5056101;28;20033;-37
2024/02/11 06:00:18;;;;;;;1.50;1.00;;;23.00;50.90;;;;;;5055202;28;20031;-39
2024/02/11 06:02:48;;;;;;;0.68;0.68;;;23.00;51.10;;;;;;5060957;28;20040;-39
2024/02/11 06:05:14;;;;;;;1.33;0.70;;;23.00;51.10;;;;;;5068339;28;20104;-38
2024/02/11 06:07:41;;;;;;;1.03;0.80;;;23.00;51.10;;;;;;5079574;28;20500;-39
2024/02/11 06:10:13;;;;;;;1.00;0.70;;;23.00;51.00;;;;;;5081212;28;20048;-40
2024/02/11 06:12:39;;;;;;;1.48;0.70;;;23.00;50.90;;;;;;5072402;28;20091;-39
2024/02/11 06:15:27;;;;;;;1.52;0.70;;;23.00;50.80;;;;;;5071382;28;20029;-37
2024/02/11 06:17:53;;;;;;;2.80;0.70;;;23.00;50.80;;;;;;5077422;28;20056;-44
2024/02/11 06:20:20;;;;;;;0.80;0.70;;;23.00;50.80;;;;;;5079954;28;20054;-40
2024/02/11 06:22:49;;;;;;;1.00;0.60;;;23.00;51.00;;;;;;5080787;28;20286;-38
2024/02/11 06:25:16;;;;;;;1.50;0.80;;;23.00;51.10;;;;;;5080265;28;20088;-41
2024/02/11 06:27:42;;;;;;;1.65;0.70;;;23.00;51.00;;;;;;5075053;28;20044;-38
2024/02/11 06:30:13;;;;;;;1.30;0.87;;;23.00;51.00;;;;;;5081041;28;20024;-38
2024/02/11 06:32:46;;;;;;;1.15;0.85;;;23.00;51.00;;;;;;5062723;28;20032;-39
2024/02/11 06:35:12;;;;;;;1.10;0.63;;;23.00;50.80;;;;;;5078265;28;20021;-36
2024/02/11 06:37:39;;;;;;;0.93;0.68;;;23.00;50.80;;;;;;5077122;28;20043;-38
2024/02/11 06:40:20;;;;;;;1.65;0.90;;;23.00;50.80;;;;;;5056240;28;20482;-37
2024/02/11 06:42:50;;;;;;;2.55;0.70;;;23.00;50.90;;;;;;5052806;28;20039;-39
2024/02/11 06:45:17;;;;;;;0.90;0.80;;;23.00;51.10;;;;;;5067482;28;20043;-40
2024/02/11 06:47:44;;;;;;;0.80;0.70;;;23.00;51.10;;;;;;5038769;28;20043;-38
2024/02/11 06:50:18;;;;;;;2.65;0.90;;;23.00;51.10;;;;;;5076341;28;20058;-39
2024/02/11 06:52:47;;;;;;;2.17;0.85;;;23.00;51.00;;;;;;5078908;28;20035;-35
2024/02/11 06:55:15;;;;;;;1.02;0.90;;;23.00;51.00;;;;;;5077402;28;20071;-37
2024/02/11 06:57:42;;;;;;;2.40;1.00;;;23.00;51.00;;;;;;5075902;28;20058;-39
2024/02/11 07:00:09;;;;;;;1.73;0.70;;;23.00;51.00;;;;;;5072950;28;20035;-39
2024/02/11 07:02:36;;;;;;;1.65;0.90;;;23.00;50.90;;;;;;5055256;28;20025;-37
2024/02/11 07:05:03;;;;;;;0.82;0.73;;;23.00;51.10;;;;;;5056174;28;20327;-36
2024/02/11 07:07:30;;;;;;;;;;;23.00;51.30;;;;;;5079433;28;20040;-36
2024/02/11 07:09:56;;;;;;;0.70;0.70;;;23.00;51.10;;;;;;5058926;28;19959;-38
2024/02/11 07:12:22;;;;;;;3.88;0.80;;;23.00;51.00;;;;;;5080030;28;20084;-38
2024/02/11 07:14:48;;;;;;;0.85;0.80;;;23.00;51.00;;;;;;5078837;28;20537;-36
2024/02/11 07:17:19;;;;;;;1.90;1.00;;;23.00;51.00;;;;;;5076770;28;20040;-38
2024/02/11 07:19:48;;;;;;;1.65;0.80;;;23.00;51.00;;;;;;5072956;28;20029;-39
2024/02/11 07:22:14;;;;;;;2.00;1.10;;;23.00;51.00;;;;;;5077900;28;20028;-39
2024/02/11 07:24:41;;;;;;;0.70;0.68;;;23.00;50.90;;;;;;5077795;28;20054;-34
2024/02/11 07:27:13;;;;;;;1.40;0.68;;;23.00;51.00;;;;;;5076539;28;20060;-35
2024/02/11 07:29:41;;;;;;;1.08;0.90;;;23.00;51.10;;;;;;5075195;28;20397;-36
2024/02/11 07:32:07;;;;;;;1.08;0.80;;;23.00;51.00;;;;;;5079326;28;20028;-37
2024/02/11 07:34:33;;;;;;;0.90;0.70;;;23.00;51.10;;;;;;5076419;28;20029;-40
2024/02/11 07:37:02;;;;;;;2.97;0.80;;;23.00;51.00;;;;;;5079142;28;20056;-36
2024/02/11 07:39:29;;;;;;;1.45;0.88;;;23.00;51.00;;;;;;5071258;28;20056;-40
2024/02/11 07:41:55;;;;;;;1.95;0.88;;;23.00;50.90;;;;;;5075037;28;20560;-39
2024/02/11 07:44:21;;;;;;;1.00;0.82;;;23.00;51.00;;;;;;5070881;28;20041;-39
2024/02/11 07:46:47;;;;;;;1.88;0.90;;;23.00;51.00;;;;;;5078362;28;20021;-40
2024/02/11 07:49:14;;;;;;;2.70;0.90;;;23.00;51.20;;;;;;5077109;28;20062;-36
2024/02/11 07:51:44;;;;;;;1.15;0.70;;;23.00;51.10;;;;;;5077442;28;20029;-39
2024/02/11 07:54:13;;;;;;;1.20;0.75;;;23.00;51.00;;;;;;5078436;28;20036;-40
2024/02/11 07:56:39;;;;;;;4.70;0.90;;;23.00;51.00;;;;;;5076665;28;20021;-35
2024/02/11 07:59:06;;;;;;;1.08;0.63;;;23.00;50.90;;;;;;5077171;28;20040;-38
2024/02/11 08:01:35;;;;;;;2.30;0.80;;;23.00;51.00;;;;;;5078063;28;20020;-40
2024/02/11 08:04:01;;;;;;;1.85;0.93;;;23.00;50.90;;;;;;5078577;28;20504;-39
2024/02/11 08:06:27;;;;;;;2.80;1.30;;;23.00;51.40;;;;;;5076658;28;20041;-38
2024/02/11 08:08:54;;;;;;;1.77;0.80;;;23.00;50.80;;;;;;5077508;28;20036;-40
2024/02/11 08:11:20;;;;;;;2.13;0.73;;;23.00;50.80;;;;;;5076497;28;20021;-39
2024/02/11 08:13:47;;;;;;;3.88;1.00;;;23.00;51.00;;;;;;5075079;28;20037;-39
2024/02/11 08:16:13;;;;;;;1.60;0.70;;;23.00;51.00;;;;;;5066961;28;20033;-39
2024/02/11 08:18:41;;;;;;;1.10;0.85;;;23.00;51.00;;;;;;5067543;28;20048;-37
2024/02/11 08:21:09;;;;;;;1.70;0.77;;;23.00;50.90;;;;;;5047947;28;20060;-40
2024/02/11 08:23:35;;;;;;;1.10;1.00;;;22.90;50.90;;;;;;5069424;28;20025;-37
2024/02/11 08:26:02;;;;;;;1.35;0.80;;;23.00;50.90;;;;;;5067518;28;20028;-36
2024/02/11 08:28:28;;;;;;;1.50;0.90;;;23.00;50.80;;;;;;5068597;28;20037;-37
2024/02/11 08:30:54;;;;;;;3.00;1.05;;;22.90;50.80;;;;;;5066758;28;20037;-37
2024/02/11 08:33:20;;;;;;;1.30;0.88;;;22.90;51.00;;;;;;5066264;28;20028;-38
2024/02/11 08:35:47;;;;;;;1.58;0.65;;;22.90;51.00;;;;;;5074359;28;20033;-39
2024/02/11 08:38:16;;;;;;;1.90;0.93;;;23.00;51.00;;;;;;5078081;28;20046;-39
2024/02/11 08:40:43;;;;;;;1.33;0.90;;;23.00;51.00;;;;;;5079403;28;20020;-38
2024/02/11 08:43:09;;;;;;;0.95;0.70;;;23.00;51.00;;;;;;5059262;28;20091;-38
2024/02/11 08:45:36;;;;;;;1.60;0.90;;;22.90;50.80;;;;;;5079365;28;20084;-36
2024/02/11 08:48:02;;;;;;;1.30;0.90;;;22.90;50.90;;;;;;5078480;28;22121;-37
2024/02/11 08:50:28;;;;;;;1.17;0.85;;;22.90;50.90;;;;;;5074938;28;20083;-39
2024/02/11 08:52:55;;;;;;;1.90;0.90;;;22.90;51.00;;;;;;5083196;28;20032;-40
2024/02/11 08:55:21;;;;;;;2.50;0.90;;;22.90;51.00;;;;;;5080340;28;20050;-39
2024/02/11 08:57:48;;;;;;;1.80;0.97;;;22.90;50.90;;;;;;5080484;28;20131;-38
2024/02/11 09:00:18;;;;;;;1.20;1.00;;;23.00;51.00;;;;;;5076488;28;20368;-40
2024/02/11 09:02:47;;;;;;;1.80;0.93;;;23.00;51.10;;;;;;5061392;28;20039;-40
2024/02/11 09:05:14;;;;;;;1.45;0.80;;;22.90;50.90;;;;;;5078461;28;20028;-40
2024/02/11 09:07:42;;;;;;;2.35;1.00;;;22.90;50.90;;;;;;5078148;28;20045;-40
2024/02/11 09:10:09;;;;;;;1.63;0.95;;;22.90;50.90;;;;;;5080377;28;20029;-39
2024/02/11 09:12:35;;;;;;;1.40;0.93;;;22.90;50.90;;;;;;5079487;28;20029;-39
2024/02/11 09:15:02;;;;;;;1.58;0.90;;;22.90;50.80;;;;;;5076262;28;20029;-40
2024/02/11 09:17:32;;;;;;;1.52;0.90;;;22.90;50.90;;;;;;5078873;28;20079;-39
2024/02/11 09:19:59;;;;;;;2.00;1.00;;;22.90;51.20;;;;;;5079044;28;20037;-40
2024/02/11 09:22:26;;;;;;;3.30;0.90;;;22.90;51.20;;;;;;5074180;28;20043;-34
2024/02/11 09:24:52;;;;;;;2.35;1.02;;;22.90;51.10;;;;;;5075788;28;20085;-38
2024/02/11 09:27:19;;;;;;;2.80;1.13;;;22.90;51.00;;;;;;5074179;28;20033;-39
2024/02/11 09:29:45;;;;;;;1.55;1.00;;;22.90;51.60;;;;;;5078299;28;20036;-37
2024/02/11 09:32:13;;;;;;;1.95;0.95;;;22.90;51.00;;;;;;5078207;28;20111;-38
2024/02/11 09:34:40;;;;;;;3.83;1.00;;;22.90;51.00;;;;;;5081616;28;20028;-39
2024/02/11 09:37:06;;;;;;;;;;;22.90;51.00;;;;;;5083856;28;20063;-38
2024/02/11 09:39:32;;;;;;;2.22;0.90;;;22.90;51.00;;;;;;5073005;28;19912;-38
2024/02/11 09:41:59;;;;;;;2.25;1.02;;;22.90;50.90;;;;;;5075981;28;20024;-39
2024/02/11 09:44:26;;;;;;;2.65;1.08;;;22.90;51.10;;;;;;5080937;28;20032;-36
2024/02/11 09:46:52;;;;;;;1.65;0.90;;;22.90;51.20;;;;;;5080554;28;20046;-38
2024/02/11 09:49:20;;;;;;;1.45;0.93;;;22.90;51.10;;;;;;5077929;28;20047;-38
2024/02/11 09:51:46;;;;;;;2.28;0.95;;;22.90;51.10;;;;;;5065018;28;20035;-39
2024/02/11 09:54:13;;;;;;;1.97;1.00;;;22.90;51.10;;;;;;5057473;28;20065;-37
2024/02/11 09:56:41;;;;;;;2.13;1.10;;;22.90;51.10;;;;;;5080591;28;20032;-39
2024/02/11 09:59:11;;;;;;;2.80;1.23;;;22.90;51.00;;;;;;5082104;28;20060;-38
2024/02/11 10:01:41;;;;;;;1.33;0.90;;;22.90;51.10;;;;;;5054061;28;20025;-40
2024/02/11 10:04:07;;;;;;;1.63;0.95;;;22.90;51.00;;;;;;5055164;28;20033;-40
2024/02/11 10:06:43;;;;;;;1.13;0.80;;;22.90;51.10;;;;;;5049046;28;20039;-39
2024/02/11 10:09:12;;;;;;;1.60;0.93;;;22.90;51.00;;;;;;5044666;28;20038;-41
2024/02/11 10:11:41;;;;;;;1.70;0.85;;;22.90;51.30;;;;;;5029635;28;20036;-40
2024/02/11 10:14:13;;;;;;;1.70;1.05;;;22.90;51.40;;;;;;5046081;28;20029;-39
2024/02/11 10:16:39;;;;;;;2.75;0.90;;;22.90;51.30;;;;;;5043887;28;20032;-38
2024/02/11 10:19:09;;;;;;;1.45;0.90;;;22.90;51.20;;;;;;5044801;28;20056;-38
2024/02/11 10:21:35;;;;;;;1.58;1.20;;;22.90;51.20;;;;;;5046584;28;20044;-36
2024/02/11 10:24:05;;;;;;;2.67;1.07;;;22.90;51.20;;;;;;5052495;28;20040;-39
2024/02/11 10:26:31;;;;;;;2.55;1.00;;;22.90;51.10;;;;;;5054848;28;20041;-39
2024/02/11 10:28:59;;;;;;;0.75;0.70;;;22.90;51.20;;;;;;5060095;28;20144;-39
2024/02/11 10:31:29;;;;;;;1.52;0.90;;;22.90;51.20;;;;;;5062794;28;20037;-40
2024/02/11 10:33:58;;;;;;;2.30;0.80;;;22.80;51.60;;;;;;5040871;28;20076;-33
2024/02/11 10:36:25;;;;;;;4.93;0.90;;;22.90;51.50;;;;;;5060092;28;20059;-39
2024/02/11 10:38:54;;;;;;;3.50;1.10;;;22.90;51.50;;;;;;5036168;28;20032;-38
2024/02/11 10:41:23;;;;;;;1.08;0.82;;;22.90;51.60;;;;;;5056818;28;20080;-38
2024/02/11 10:43:52;;;;;;;1.92;0.85;;;22.90;51.50;;;;;;5053203;28;20155;-38
2024/02/11 10:46:20;;;;;;;2.28;0.90;;;22.90;51.50;;;;;;5051475;28;20032;-36
2024/02/11 10:48:46;;;;;;;3.05;0.98;;;22.90;51.50;;;;;;5059242;28;20041;-40
2024/02/11 10:51:25;;;;;;;2.47;0.80;;;22.90;52.00;;;;;;5061175;28;20041;-42
2024/02/11 10:54:01;;;;;;;3.40;1.02;;;22.90;51.50;;;;;;5061076;28;20025;-39
2024/02/11 10:56:30;;;;;;;1.63;0.80;;;22.90;51.50;;;;;;5055941;28;20056;-40
2024/02/11 10:59:08;;;;;;;1.10;0.70;;;22.90;51.50;;;;;;5052592;28;20021;-35
2024/02/11 11:01:37;;;;;;;2.00;0.90;;;22.90;51.80;;;;;;5058350;28;20029;-37
2024/02/11 11:04:03;;;;;;;1.25;0.82;;;22.90;51.60;;;;;;5039984;28;20054;-38
2024/02/11 11:06:31;;;;;;;1.03;0.60;;;22.90;51.60;;;;;;5057476;28;20048;-37
2024/02/11 11:08:57;;;;;;;1.55;0.77;;;22.90;51.70;;;;;;5076800;28;20101;-38
2024/02/11 11:11:25;;;;;;;3.28;0.80;;;22.90;51.60;;;;;;5056680;28;20135;-37
2024/02/11 11:13:56;;;;;;;1.10;0.80;;;22.90;51.50;;;;;;5070198;28;20582;-39
2024/02/11 11:16:30;;;;;;;2.30;0.63;;;22.90;51.50;;;;;;5073559;28;20033;-39
2024/02/11 11:19:02;;;;;;;1.50;0.80;;;22.90;51.50;;;;;;5056682;28;20028;-37
2024/02/11 11:21:29;;;;;;;1.55;0.70;;;22.90;51.80;;;;;;5076230;28;20036;-38
2024/02/11 11:23:59;;;;;;;0.60;0.60;;;22.90;51.90;;;;;;5074768;28;20029;-40
2024/02/11 11:26:27;;;;;;;1.00;0.57;;;22.90;51.80;;;;;;5072538;28;20063;-39
2024/02/11 11:29:02;;;;;;;2.05;0.60;;;23.00;51.70;;;;;;5070604;28;20063;-38
2024/02/11 11:31:31;;;;;;;2.15;0.80;;;23.00;51.60;;;;;;5075473;28;20055;-39
2024/02/11 11:33:57;;;;;;;1.30;0.80;;;23.00;51.60;;;;;;5069800;28;20027;-40
2024/02/11 11:36:26;;;;;;;2.95;0.70;;;23.00;51.60;;;;;;5077834;28;20449;-39
2024/02/11 11:38:53;;;;;;;1.00;0.68;;;22.90;51.50;;;;;;5080272;28;20039;-39
2024/02/11 11:41:20;;;;;;;0.93;0.55;;;22.90;51.50;;;;;;5068185;28;20029;-39
2024/02/11 11:43:46;;;;;;;2.80;1.00;;;22.90;51.60;;;;;;5070079;28;20060;-38
2024/02/11 11:46:13;;;;;;;1.27;0.60;;;22.90;51.80;;;;;;5076896;28;20062;-39
2024/02/11 11:48:39;;;;;;;2.20;0.60;;;23.00;51.90;;;;;;5046993;28;20040;-39
2024/02/11 11:51:10;;;;;;;0.93;0.55;;;23.00;51.70;;;;;;5083795;28;20275;-37
2024/02/11 11:53:37;;;;;;;0.95;0.57;;;23.00;51.70;;;;;;5084839;28;20040;-39
2024/02/11 11:56:05;;;;;;;1.08;0.60;;;23.00;51.60;;;;;;5077159;28;20104;-40
2024/02/11 11:58:31;;;;;;;1.63;0.90;;;23.00;51.60;;;;;;5079518;28;20037;-39
2024/02/11 12:01:04;;;;;;;2.28;0.70;;;23.00;51.60;;;;;;5081048;28;20021;-39
2024/02/11 12:03:31;;;;;;;0.85;0.70;;;23.00;51.60;;;;;;5079444;28;20039;-38
2024/02/11 12:05:57;;;;;;;1.88;0.57;;;23.00;51.50;;;;;;5080418;28;20056;-39
2024/02/11 12:08:25;;;;;;;1.90;0.60;;;23.00;51.70;;;;;;5058971;28;20068;-38
2024/02/11 12:11:00;;;;;;;0.60;0.57;;;23.00;51.90;;;;;;5079102;28;20349;-39
2024/02/11 12:13:29;;;;;;;0.95;0.50;;;23.00;51.70;;;;;;5082638;28;20020;-39
2024/02/11 12:15:58;;;;;;;1.00;0.73;;;23.00;51.70;;;;;;5050892;28;20067;-39
2024/02/11 12:18:25;;;;;;;2.20;0.47;;;23.00;51.70;;;;;;5081790;28;20035;-38
2024/02/11 12:20:53;;;;;;;0.98;0.60;;;23.00;51.80;;;;;;5083085;28;20094;-35
2024/02/11 12:23:19;;;;;;;2.38;0.60;;;23.00;51.80;;;;;;5083753;28;20044;-39
2024/02/11 12:25:54;;;;;;;0.80;0.60;;;23.00;51.90;;;;;;5079719;28;20028;-40
2024/02/11 12:28:25;;;;;;;1.33;0.70;;;23.00;51.80;;;;;;5076554;28;20037;-38
2024/02/11 12:30:51;;;;;;;1.38;0.60;;;23.00;51.80;;;;;;5079661;28;20061;-40
2024/02/11 12:33:17;;;;;;;1.13;0.50;;;23.00;51.80;;;;;;5080339;28;20025;-40
2024/02/11 12:35:44;;;;;;;1.10;0.60;;;23.00;51.90;;;;;;5067014;28;22569;-37
2024/02/11 12:38:10;;;;;;;1.00;0.60;;;23.00;52.10;;;;;;5062776;28;20033;-39
2024/02/11 12:40:40;;;;;;;0.82;0.50;;;23.00;51.90;;;;;;5051633;28;20032;-39
2024/02/11 12:43:07;;;;;;;0.60;0.47;;;23.00;51.90;;;;;;5065220;28;20577;-39
2024/02/11 12:45:33;;;;;;;0.70;0.43;;;23.00;51.90;;;;;;5067710;28;20036;-37
2024/02/11 12:47:59;;;;;;;0.80;0.65;;;23.00;51.90;;;;;;5069137;28;20485;-39
2024/02/11 12:50:26;;;;;;;0.98;0.57;;;23.00;52.00;;;;;;5065827;28;20078;-38